Time;durP1;ratioP1;P1;durP2;ratioP2;P2;SDS_P1;SDS_P2;PMS_P1;PMS_P2;Temp;Humidity;BMP_temperature;BMP_pressure;BME280_temperature;BME280_humidity;BME280_pressure;Samples;Min_cycle;Max_cycle;Signal;HPM_P1;HPM_P2
2022/03/27 00:00:13;;;;;;;21.05;11.15;;;;;;;7.68;100.00;97851.47;4979542;28;20065;-70
2022/03/27 00:02:40;;;;;;;25.23;11.77;;;;;;;7.69;100.00;97849.63;4981200;28;20062;-70
2022/03/27 00:05:06;;;;;;;22.55;11.57;;;;;;;7.60;100.00;97853.47;4980309;28;20392;-72
2022/03/27 00:07:32;;;;;;;23.50;11.52;;;;;;;7.58;100.00;97858.19;4979921;28;20040;-69
2022/03/27 00:09:57;;;;;;;22.42;11.25;;;;;;;7.65;100.00;97859.03;4962926;28;20042;-69
2022/03/27 00:12:23;;;;;;;22.83;11.68;;;;;;;7.44;100.00;97852.75;4976939;28;20034;-70
2022/03/27 00:14:48;;;;;;;20.90;11.60;;;;;;;7.37;100.00;97856.38;4978219;28;20142;-68
2022/03/27 00:17:13;;;;;;;26.55;11.75;;;;;;;7.37;100.00;97853.72;4979262;28;20355;-69
2022/03/27 00:19:39;;;;;;;20.88;11.63;;;;;;;7.47;100.00;97849.72;4978113;28;20046;-72
2022/03/27 00:22:05;;;;;;;27.63;11.95;;;;;;;7.48;100.00;97855.88;4979952;28;20956;-68
2022/03/27 00:24:30;;;;;;;22.92;11.30;;;;;;;7.39;100.00;97852.53;4981853;28;20042;-69
2022/03/27 00:26:56;;;;;;;23.95;11.65;;;;;;;7.30;100.00;97851.00;4978234;28;20510;-68
2022/03/27 00:29:22;;;;;;;24.83;12.82;;;;;;;7.16;100.00;97851.91;4979079;28;20047;-69
2022/03/27 00:31:48;;;;;;;22.05;11.45;;;;;;;7.21;100.00;97849.50;4960431;28;20324;-69
2022/03/27 00:34:14;;;;;;;25.80;12.75;;;;;;;7.26;100.00;97844.44;4980145;28;20149;-69
2022/03/27 00:36:39;;;;;;;27.90;12.80;;;;;;;7.29;100.00;97846.69;4962490;28;20050;-70
2022/03/27 00:39:05;;;;;;;22.83;12.27;;;;;;;7.38;100.00;97839.38;4979857;28;20042;-72
2022/03/27 00:41:31;;;;;;;21.70;12.07;;;;;;;7.42;100.00;97846.81;4977075;28;20034;-71
2022/03/27 00:43:56;;;;;;;20.13;11.27;;;;;;;7.48;100.00;97840.69;4979127;28;20372;-69
2022/03/27 00:46:22;;;;;;;24.30;12.13;;;;;;;7.54;100.00;97855.88;4981053;28;20042;-70
2022/03/27 00:48:47;;;;;;;23.95;12.07;;;;;;;7.53;100.00;97848.09;4979191;28;20085;-69
2022/03/27 00:51:13;;;;;;;27.80;12.15;;;;;;;7.50;100.00;97841.31;4979821;28;20042;-68
2022/03/27 00:53:38;;;;;;;24.42;11.43;;;;;;;7.49;100.00;97837.00;4976968;28;20042;-71
2022/03/27 00:56:04;;;;;;;23.98;11.90;;;;;;;7.49;100.00;97834.34;4977752;28;20053;-71
2022/03/27 00:58:29;;;;;;;21.73;10.65;;;;;;;7.53;100.00;97846.25;4978596;28;20088;-69
2022/03/27 01:01:15;;;;;;;22.48;11.10;;;;;;;7.49;100.00;97846.84;4979248;28;20042;-69
2022/03/27 01:03:41;;;;;;;23.05;10.63;;;;;;;7.32;100.00;97835.69;4978185;28;20042;-71
2022/03/27 01:06:18;;;;;;;24.40;11.02;;;;;;;7.33;100.00;97842.66;4977850;28;20046;-69
2022/03/27 01:11:44;;;;;;;20.23;11.13;;;;;;;7.38;100.00;97842.88;4903722;29;20051;-72
2022/03/27 01:14:10;;;;;;;23.70;12.23;;;;;;;7.38;100.00;97839.38;4961820;28;20042;-70
2022/03/27 01:16:42;;;;;;;22.35;10.95;;;;;;;7.37;100.00;97833.22;4980116;28;20045;-70
2022/03/27 01:19:11;;;;;;;21.35;10.85;;;;;;;7.39;100.00;97819.72;4978849;28;20203;-71
2022/03/27 01:21:40;;;;;;;19.75;10.60;;;;;;;7.44;100.00;97823.44;4978942;28;20050;-68
2022/03/27 01:24:06;;;;;;;18.30;10.98;;;;;;;7.45;100.00;97826.94;4978957;28;20726;-70
2022/03/27 01:26:33;;;;;;;19.60;11.43;;;;;;;7.38;100.00;97813.56;4978671;28;20050;-72
2022/03/27 01:28:59;;;;;;;19.92;10.73;;;;;;;7.36;100.00;97815.63;4976731;28;20096;-70
2022/03/27 01:31:25;;;;;;;23.13;10.82;;;;;;;7.33;100.00;97816.03;4975924;28;20047;-70
2022/03/27 01:33:51;;;;;;;22.00;10.55;;;;;;;7.29;100.00;97814.75;4963352;28;20104;-70
2022/03/27 01:36:28;;;;;;;23.70;11.05;;;;;;;7.27;100.00;97814.13;4978088;28;20050;-70
2022/03/27 01:38:56;;;;;;;19.80;10.20;;;;;;;7.32;100.00;97806.38;4980411;28;20777;-68
2022/03/27 01:41:23;;;;;;;21.17;10.10;;;;;;;7.31;100.00;97811.88;4976931;28;20093;-71
2022/03/27 01:43:49;;;;;;;19.23;10.55;;;;;;;7.23;100.00;97807.53;4979149;28;20046;-69
2022/03/27 01:46:15;;;;;;;22.83;10.77;;;;;;;7.22;100.00;97806.72;4977611;28;20046;-69
2022/03/27 01:48:41;;;;;;;21.30;10.32;;;;;;;7.21;100.00;97799.75;4979532;28;20553;-70
2022/03/27 01:51:08;;;;;;;19.80;10.38;;;;;;;7.09;100.00;97797.81;4981192;28;20046;-69
2022/03/27 01:53:36;;;;;;;19.67;10.00;;;;;;;7.08;100.00;97798.81;4981857;28;20057;-68
2022/03/27 01:56:01;;;;;;;19.15;10.05;;;;;;;7.10;100.00;97796.81;4981512;28;20038;-71
2022/03/27 01:58:27;;;;;;;20.95;10.43;;;;;;;7.00;100.00;97797.13;4981961;28;20468;-70
2022/03/27 02:00:53;;;;;;;23.75;11.00;;;;;;;6.94;100.00;97790.75;4984323;28;20157;-68
2022/03/27 02:03:19;;;;;;;24.17;11.23;;;;;;;6.92;100.00;97792.75;4980914;28;20462;-69
2022/03/27 02:05:49;;;;;;;20.42;10.60;;;;;;;7.01;100.00;97797.97;4982944;28;20042;-70
2022/03/27 02:08:15;;;;;;;21.08;11.10;;;;;;;6.96;100.00;97796.69;4978086;28;20084;-71
2022/03/27 02:10:41;;;;;;;25.55;12.05;;;;;;;6.88;100.00;97802.16;4981773;28;20054;-69
2022/03/27 02:13:14;;;;;;;24.65;11.15;;;;;;;6.85;100.00;97801.75;4981103;28;20058;-69
2022/03/27 02:15:40;;;;;;;21.35;10.15;;;;;;;6.87;100.00;97805.03;4982674;28;20046;-69
2022/03/27 02:18:07;;;;;;;20.25;10.32;;;;;;;6.83;100.00;97801.91;4979974;28;20367;-69
2022/03/27 02:20:33;;;;;;;20.52;10.73;;;;;;;6.68;100.00;97809.97;4980636;28;20042;-70
2022/03/27 02:22:58;;;;;;;19.77;10.35;;;;;;;6.69;100.00;97808.13;4984706;28;20034;-69
2022/03/27 02:25:24;;;;;;;21.15;11.25;;;;;;;6.69;100.00;97808.97;4979705;28;20456;-69
2022/03/27 02:27:49;;;;;;;18.10;9.43;;;;;;;6.58;100.00;97805.97;4982603;28;20256;-72
2022/03/27 02:30:15;;;;;;;23.23;11.48;;;;;;;6.62;100.00;97807.25;4965411;28;20042;-70
2022/03/27 02:32:41;;;;;;;21.67;10.32;;;;;;;6.49;100.00;97805.28;4980828;28;20041;-71
2022/03/27 02:35:06;;;;;;;19.88;9.95;;;;;;;6.51;100.00;97811.22;4979898;28;20678;-69
2022/03/27 02:37:32;;;;;;;22.70;11.05;;;;;;;6.48;100.00;97810.81;4981974;28;20081;-69
2022/03/27 02:39:57;;;;;;;21.42;11.43;;;;;;;6.53;100.00;97803.88;4978350;28;20038;-70
2022/03/27 02:42:23;;;;;;;22.92;11.15;;;;;;;6.57;100.00;97809.66;4979882;28;20030;-69
2022/03/27 02:44:49;;;;;;;20.95;11.55;;;;;;;6.59;100.00;97812.94;4981483;28;20050;-69
2022/03/27 02:47:14;;;;;;;26.48;12.10;;;;;;;6.56;100.00;97797.38;4980314;28;20383;-70
2022/03/27 02:49:40;;;;;;;20.90;11.45;;;;;;;6.60;100.00;97799.44;4980206;28;20039;-69
2022/03/27 02:52:05;;;;;;;24.38;11.75;;;;;;;6.62;100.00;97807.25;4976950;28;20038;-70
2022/03/27 02:54:31;;;;;;;21.10;11.27;;;;;;;6.63;100.00;97804.41;4982566;28;20054;-72
2022/03/27 02:56:56;;;;;;;22.35;11.80;;;;;;;6.67;100.00;97802.19;4979526;28;20680;-69
2022/03/27 02:59:24;;;;;;;25.45;12.13;;;;;;;6.62;100.00;97797.44;4980514;28;20132;-69
2022/03/27 03:01:49;;;;;;;23.13;11.68;;;;;;;6.62;100.00;97801.94;4980631;28;20042;-69
2022/03/27 03:04:15;;;;;;;22.20;12.38;;;;;;;6.63;100.00;97801.75;4983872;28;20037;-69
2022/03/27 03:06:42;;;;;;;25.60;11.95;;;;;;;6.62;100.00;97801.94;4980096;28;20047;-70
2022/03/27 03:09:08;;;;;;;24.55;11.70;;;;;;;6.58;100.00;97800.66;4981107;28;20104;-68
2022/03/27 03:11:33;;;;;;;26.15;12.65;;;;;;;6.54;100.00;97802.91;4982698;28;20425;-69
2022/03/27 03:13:59;;;;;;;23.20;12.43;;;;;;;6.57;100.00;97804.34;4981326;28;20053;-70
2022/03/27 03:16:25;;;;;;;21.55;12.07;;;;;;;6.56;100.00;97800.84;4978972;28;20064;-69
2022/03/27 03:18:51;;;;;;;22.73;11.95;;;;;;;6.56;100.00;97803.53;4980788;28;20080;-68
2022/03/27 03:21:16;;;;;;;24.25;11.73;;;;;;;6.58;100.00;97801.47;4980476;28;20152;-69
2022/03/27 03:23:42;;;;;;;25.70;12.45;;;;;;;6.53;100.00;97793.25;4979327;28;20043;-71
2022/03/27 03:26:07;;;;;;;87.47;34.42;;;;;;;6.41;100.00;97800.09;4977154;28;20320;-70
2022/03/27 03:28:34;;;;;;;55.00;24.63;;;;;;;6.30;100.00;97801.44;4965910;28;20045;-70
2022/03/27 03:31:00;;;;;;;39.38;18.50;;;;;;;6.27;100.00;97799.13;4980579;28;20053;-69
2022/03/27 03:33:26;;;;;;;26.35;12.85;;;;;;;6.27;100.00;97793.81;4982801;28;20034;-69
2022/03/27 03:35:52;;;;;;;28.27;12.90;;;;;;;6.25;100.00;97793.19;4979684;28;20401;-68
2022/03/27 03:38:17;;;;;;;25.55;12.90;;;;;;;6.30;100.00;97790.78;4978272;28;20049;-69
2022/03/27 03:40:43;;;;;;;26.02;12.82;;;;;;;6.34;100.00;97793.88;4976792;28;20046;-70
2022/03/27 03:43:11;;;;;;;27.00;11.57;;;;;;;6.32;100.00;97802.06;4977450;28;20595;-70
2022/03/27 03:45:37;;;;;;;24.80;12.60;;;;;;;6.32;100.00;97793.25;4980697;28;20046;-70
2022/03/27 03:48:04;;;;;;;24.13;12.15;;;;;;;6.27;100.00;97791.16;4980935;28;20081;-70
2022/03/27 03:50:33;;;;;;;24.75;12.27;;;;;;;6.33;100.00;97798.38;4978825;28;20060;-71
2022/03/27 03:52:59;;;;;;;24.55;12.68;;;;;;;6.27;100.00;97800.97;4977293;28;20046;-69
2022/03/27 03:55:26;;;;;;;24.40;12.48;;;;;;;6.17;100.00;97797.81;4977826;28;20038;-69
2022/03/27 03:57:51;;;;;;;25.23;12.48;;;;;;;6.19;100.00;97798.44;4979295;28;20612;-69
2022/03/27 04:00:17;;;;;;;24.15;12.65;;;;;;;6.19;100.00;97795.78;4976353;28;20476;-69
2022/03/27 04:02:43;;;;;;;25.05;12.45;;;;;;;6.24;100.00;97798.69;4980669;28;20458;-70
2022/03/27 04:05:08;;;;;;;24.27;11.60;;;;;;;6.21;100.00;97799.88;4977722;28;20046;-69
2022/03/27 04:07:34;;;;;;;29.02;13.35;;;;;;;6.15;100.00;97795.34;4977793;28;20124;-71
2022/03/27 04:09:59;;;;;;;20.77;11.50;;;;;;;6.05;100.00;97797.44;4977625;28;20030;-70
2022/03/27 04:12:25;;;;;;;25.65;12.18;;;;;;;6.07;100.00;97808.72;4978514;28;20473;-69
2022/03/27 04:14:50;;;;;;;27.90;12.68;;;;;;;6.05;100.00;97805.44;4978979;28;20035;-69
2022/03/27 04:17:16;;;;;;;24.85;12.75;;;;;;;6.02;100.00;97816.44;4979034;28;20054;-70
2022/03/27 04:19:42;;;;;;;27.48;12.85;;;;;;;6.05;100.00;97800.94;4978131;28;20154;-68
2022/03/27 04:22:07;;;;;;;27.17;11.60;;;;;;;6.14;100.00;97804.28;4978978;28;20057;-70
2022/03/27 04:24:33;;;;;;;29.80;14.75;;;;;;;6.28;100.00;97805.28;4977480;28;20058;-69
2022/03/27 04:26:59;;;;;;;29.48;13.77;;;;;;;6.41;100.00;97808.91;4979209;28;20049;-68
2022/03/27 04:29:24;;;;;;;22.58;13.45;;;;;;;6.43;100.00;97803.38;4978036;28;20042;-69
2022/03/27 04:31:51;;;;;;;31.80;14.88;;;;;;;6.39;100.00;97799.47;4981792;28;20138;-71
2022/03/27 04:34:17;;;;;;;29.42;13.55;;;;;;;6.35;100.00;97803.50;4981017;28;20357;-72
2022/03/27 04:36:43;;;;;;;28.63;13.48;;;;;;;6.44;100.00;97807.69;4978546;28;20375;-70
2022/03/27 04:39:09;;;;;;;26.08;14.05;;;;;;;6.51;100.00;97800.59;4976646;28;20104;-72
2022/03/27 04:41:35;;;;;;;23.27;12.88;;;;;;;6.66;100.00;97809.34;4976790;28;20046;-69
2022/03/27 04:44:01;;;;;;;32.17;14.35;;;;;;;6.67;100.00;97810.16;4979939;28;20046;-69
2022/03/27 04:46:27;;;;;;;27.00;13.52;;;;;;;6.65;100.00;97807.69;4981481;28;20456;-70
2022/03/27 04:48:52;;;;;;;24.95;12.35;;;;;;;6.59;100.00;97812.94;4978840;28;20185;-70
2022/03/27 04:51:18;;;;;;;31.38;13.90;;;;;;;6.57;100.00;97813.13;4978835;28;20606;-71
2022/03/27 04:53:43;;;;;;;27.58;13.15;;;;;;;6.57;100.00;97817.63;4963465;28;20066;-70
2022/03/27 04:56:09;;;;;;;30.77;13.65;;;;;;;6.51;100.00;97810.41;4961968;28;20342;-69
2022/03/27 04:58:35;;;;;;;30.67;13.60;;;;;;;6.51;100.00;97821.88;4981169;28;20054;-69
2022/03/27 05:01:01;;;;;;;25.27;13.50;;;;;;;6.49;100.00;97815.09;4979024;28;20130;-70
2022/03/27 05:03:27;;;;;;;29.23;14.45;;;;;;;6.46;100.00;97812.81;4979680;28;20049;-69
2022/03/27 05:05:52;;;;;;;26.90;14.00;;;;;;;6.42;100.00;97818.50;4978567;28;20054;-69
2022/03/27 05:08:18;;;;;;;30.33;13.60;;;;;;;6.37;100.00;97814.75;4976707;28;20225;-68
2022/03/27 05:10:43;;;;;;;25.63;13.20;;;;;;;6.39;100.00;97812.75;4975178;28;20047;-70
2022/03/27 05:13:09;;;;;;;27.80;14.10;;;;;;;6.49;100.00;97817.75;4961025;28;20525;-68
2022/03/27 05:15:35;;;;;;;25.55;14.07;;;;;;;6.54;100.00;97820.69;4978255;28;20548;-70
2022/03/27 05:18:01;;;;;;;27.52;13.98;;;;;;;6.55;100.00;97823.16;4980418;28;20053;-70
2022/03/27 05:20:28;;;;;;;26.98;14.52;;;;;;;6.45;100.00;97811.97;4980746;28;20508;-70
2022/03/27 05:22:55;;;;;;;27.25;14.38;;;;;;;6.53;100.00;97827.00;4982264;28;20567;-70
2022/03/27 05:25:20;;;;;;;24.77;13.55;;;;;;;6.53;100.00;97829.66;4982295;28;20053;-69
2022/03/27 05:27:53;;;;;;;28.63;14.60;;;;;;;6.55;100.00;97838.28;4981649;28;20076;-68
2022/03/27 05:30:24;;;;;;;27.88;13.63;;;;;;;6.54;100.00;97834.00;4979425;28;20121;-71
2022/03/27 05:32:51;;;;;;;29.65;14.13;;;;;;;6.52;100.00;97836.81;4984865;28;20046;-69
2022/03/27 05:35:18;;;;;;;26.05;12.70;;;;;;;6.55;100.00;97835.63;4982113;28;20038;-71
2022/03/27 05:37:44;;;;;;;37.25;14.93;;;;;;;6.58;100.00;97836.06;4984007;28;20084;-69
2022/03/27 05:40:12;;;;;;;27.17;13.98;;;;;;;6.61;100.00;97837.50;4980483;28;20034;-70
2022/03/27 05:42:38;;;;;;;29.00;15.02;;;;;;;6.68;100.00;97841.06;4978216;28;20065;-69
2022/03/27 05:45:05;;;;;;;26.08;13.07;;;;;;;6.68;100.00;97841.06;4981671;28;20489;-71
2022/03/27 05:47:31;;;;;;;28.00;13.77;;;;;;;6.75;100.00;97839.28;4984252;28;20141;-69
2022/03/27 05:49:56;;;;;;;25.70;14.57;;;;;;;6.81;100.00;97829.72;4979996;28;20273;-69
2022/03/27 05:52:23;;;;;;;27.42;13.15;;;;;;;6.83;100.00;97839.16;4966688;28;20046;-69
2022/03/27 05:54:49;;;;;;;31.67;13.68;;;;;;;6.86;100.00;97827.31;4983696;28;20492;-69
2022/03/27 05:57:15;;;;;;;27.60;14.68;;;;;;;6.92;100.00;97824.69;4978044;28;20035;-70
2022/03/27 05:59:43;;;;;;;27.90;14.63;;;;;;;6.94;100.00;97833.34;4979454;28;20042;-69
2022/03/27 06:02:08;;;;;;;30.58;15.07;;;;;;;6.95;100.00;97840.31;4980763;28;20034;-68
2022/03/27 06:04:33;;;;;;;27.75;13.57;;;;;;;7.01;100.00;97843.22;4982217;28;20057;-73
2022/03/27 06:06:59;;;;;;;29.38;13.82;;;;;;;7.05;100.00;97839.97;4983245;28;20069;-69
2022/03/27 06:09:24;;;;;;;32.38;14.25;;;;;;;7.15;100.00;97842.28;4981144;28;20127;-70
2022/03/27 06:11:50;;;;;;;32.92;14.02;;;;;;;7.20;100.00;97845.19;4981906;28;20057;-72
2022/03/27 06:14:16;;;;;;;32.25;16.05;;;;;;;7.22;100.00;97841.31;4981152;28;20069;-72
2022/03/27 06:16:43;;;;;;;25.63;12.25;;;;;;;7.27;100.00;97838.09;4983272;28;20290;-72
2022/03/27 06:19:09;;;;;;;32.67;15.00;;;;;;;7.34;100.00;97838.13;4980902;28;20038;-71
2022/03/27 06:21:34;;;;;;;28.13;14.20;;;;;;;7.39;100.00;97846.34;4981095;28;20034;-69
2022/03/27 06:24:00;;;;;;;27.85;14.48;;;;;;;7.42;100.00;97845.97;4982403;28;20095;-70
2022/03/27 06:26:25;;;;;;;24.95;12.82;;;;;;;7.47;100.00;97844.38;4960435;28;20496;-69
2022/03/27 06:28:51;;;;;;;26.85;14.27;;;;;;;7.51;100.00;97842.16;4960060;28;20169;-70
2022/03/27 06:31:17;;;;;;;31.58;13.88;;;;;;;7.58;100.00;97850.19;4959857;28;20042;-70
2022/03/27 06:33:42;;;;;;;31.27;13.88;;;;;;;7.60;100.00;97851.63;4961142;28;20070;-70
2022/03/27 06:36:07;;;;;;;27.85;13.98;;;;;;;7.67;100.00;97846.34;4959669;28;20041;-71
2022/03/27 06:38:33;;;;;;;28.50;13.82;;;;;;;7.73;100.00;97848.22;4958815;28;20046;-69
2022/03/27 06:40:58;;;;;;;23.65;12.73;;;;;;;7.79;100.00;97852.78;4963406;28;20149;-69
2022/03/27 06:43:24;;;;;;;25.38;12.80;;;;;;;7.91;100.00;97850.34;4958687;28;20054;-69
2022/03/27 06:45:50;;;;;;;25.67;12.77;;;;;;;7.98;100.00;97846.69;4961830;28;20049;-69
2022/03/27 06:48:16;;;;;;;23.27;13.10;;;;;;;8.07;100.00;97848.19;4955504;28;20034;-69
2022/03/27 06:50:44;;;;;;;25.30;12.10;;;;;;;8.20;100.00;97859.94;4961284;28;20039;-69
2022/03/27 06:53:10;;;;;;;26.55;12.40;;;;;;;8.31;100.00;97848.69;4960438;28;20141;-69
2022/03/27 06:55:37;;;;;;;25.67;12.95;;;;;;;8.39;100.00;97853.84;4961944;28;20457;-69
2022/03/27 06:58:03;;;;;;;25.20;12.43;;;;;;;8.44;100.00;97855.94;4958740;28;20225;-69
2022/03/27 07:03:12;;;;;;;19.63;10.30;;;;;;;8.68;100.00;97854.56;4615770;28;10000287;-69
2022/03/27 07:05:40;;;;;;;25.80;11.55;;;;;;;8.74;100.00;97856.44;4617164;28;10000286;-70
2022/03/27 07:08:14;;;;;;;23.08;10.95;;;;;;;8.84;100.00;97854.16;4958917;28;20093;-73
2022/03/27 07:10:42;;;;;;;22.05;11.73;;;;;;;8.90;100.00;97858.72;4959019;28;20050;-71
2022/03/27 07:13:09;;;;;;;19.83;9.38;;;;;;;9.00;100.00;97859.13;4954663;28;20046;-72
2022/03/27 07:15:36;;;;;;;20.60;11.43;;;;;;;9.12;100.00;97865.50;4959076;28;20053;-69
2022/03/27 07:18:01;;;;;;;19.80;11.20;;;;;;;9.20;100.00;97859.97;4954055;28;20038;-72
2022/03/27 07:20:31;;;;;;;20.33;9.88;;;;;;;9.32;100.00;97862.81;4960582;28;20042;-69
2022/03/27 07:22:59;;;;;;;20.35;10.50;;;;;;;9.37;100.00;97864.88;4958114;28;20089;-72
2022/03/27 07:25:27;;;;;;;17.95;9.63;;;;;;;9.44;100.00;97857.69;4959716;28;20046;-69
2022/03/27 07:27:53;;;;;;;22.17;10.40;;;;;;;9.49;100.00;97858.72;4974206;28;20149;-69
2022/03/27 07:30:18;;;;;;;17.65;9.52;;;;;;;9.56;100.00;97860.53;4979128;28;20068;-69
2022/03/27 07:32:44;;;;;;;20.73;11.93;;;;;;;9.65;100.00;97860.13;4976033;28;20300;-70
2022/03/27 07:35:14;;;;;;;19.25;10.25;;;;;;;9.71;100.00;97853.09;4978445;28;20100;-69
2022/03/27 07:37:41;;;;;;;19.73;10.20;;;;;;;9.82;100.00;97859.69;4979034;28;20054;-72
2022/03/27 07:40:08;;;;;;;19.80;9.98;;;;;;;9.87;100.00;97859.84;4975133;28;20512;-72
2022/03/27 07:42:38;;;;;;;21.02;9.73;;;;;;;9.97;100.00;97863.75;4977250;28;20149;-72
2022/03/27 07:45:04;;;;;;;18.05;9.07;;;;;;;10.07;100.00;97862.47;4977100;28;20123;-71
2022/03/27 07:47:30;;;;;;;19.35;9.77;;;;;;;10.15;100.00;97849.69;4979956;28;20516;-72
2022/03/27 07:49:56;;;;;;;15.63;8.98;;;;;;;10.23;100.00;97849.47;4963520;28;20049;-70
2022/03/27 07:52:22;;;;;;;18.77;9.30;;;;;;;10.31;100.00;97851.91;4977789;28;20077;-72
2022/03/27 07:54:49;;;;;;;17.10;9.27;;;;;;;10.42;100.00;97849.59;4977598;28;20038;-70
2022/03/27 07:57:15;;;;;;;15.02;9.13;;;;;;;10.58;100.00;97849.09;4977608;28;20466;-70
2022/03/27 07:59:43;;;;;;;16.15;7.82;;;;;;;10.74;100.00;97842.41;4977686;28;20042;-70
2022/03/27 08:02:08;;;;;;;16.83;7.88;;;;;;;10.76;100.00;97846.53;4977148;28;20693;-69
2022/03/27 08:04:34;;;;;;;15.40;8.32;;;;;;;10.83;100.00;97833.94;4976666;28;20050;-70
2022/03/27 08:07:01;;;;;;;19.05;9.27;;;;;;;10.89;100.00;97845.59;4946852;28;20170;-70
2022/03/27 08:09:26;;;;;;;13.63;7.90;;;;;;;10.99;100.00;97837.13;4975055;28;20368;-72
2022/03/27 08:11:52;;;;;;;20.00;9.70;;;;;;;11.07;100.00;97839.53;4978650;28;20410;-70
2022/03/27 08:14:18;;;;;;;15.43;8.75;;;;;;;11.18;100.00;97829.94;4975429;28;20391;-70
2022/03/27 08:16:43;;;;;;;17.60;8.27;;;;;;;11.23;100.00;97830.94;4976976;28;20414;-69
2022/03/27 08:19:09;;;;;;;17.20;9.50;;;;;;;11.28;100.00;97832.94;4979140;28;20045;-69
2022/03/27 08:21:35;;;;;;;16.52;9.13;;;;;;;11.37;100.00;97831.66;4981466;28;20068;-72
2022/03/27 08:24:00;;;;;;;18.80;10.00;;;;;;;11.46;100.00;97824.97;4982912;28;20046;-71
2022/03/27 08:29:10;;;;;;;18.63;9.75;;;;;;;11.71;100.00;97827.59;4977223;28;20153;-70
2022/03/27 08:31:35;;;;;;;19.30;9.85;;;;;;;11.84;100.00;97830.19;4977076;28;20371;-69
2022/03/27 08:34:01;;;;;;;15.73;7.97;;;;;;;11.96;100.00;97839.09;4980726;28;20524;-72
2022/03/27 08:36:27;;;;;;;18.75;9.52;;;;;;;11.97;100.00;97835.38;4979386;28;20460;-72
2022/03/27 08:38:54;;;;;;;18.92;10.27;;;;;;;12.07;100.00;97839.41;4979039;28;20131;-72
2022/03/27 08:41:21;;;;;;;18.27;9.73;;;;;;;12.22;100.00;97832.63;4976729;28;20045;-70
2022/03/27 08:43:49;;;;;;;20.10;10.30;;;;;;;12.27;100.00;97831.94;4978319;28;20043;-71
2022/03/27 08:46:17;;;;;;;18.80;10.85;;;;;;;12.24;100.00;97827.03;4977241;28;20143;-70
2022/03/27 08:48:48;;;;;;;18.13;9.90;;;;;;;12.30;100.00;97836.88;4979816;28;20401;-70
2022/03/27 08:51:25;;;;;;;21.10;10.10;;;;;;;12.32;100.00;97828.59;4966856;28;20046;-70
2022/03/27 08:54:03;;;;;;;21.88;11.07;;;;;;;12.37;100.00;97837.56;4978230;28;20134;-70
2022/03/27 08:56:31;;;;;;;14.50;8.27;;;;;;;12.52;100.00;97838.00;4944012;28;20046;-70
2022/03/27 08:59:01;;;;;;;18.02;10.05;;;;;;;12.62;100.00;97833.97;4977500;28;20034;-71
2022/03/27 09:01:28;;;;;;;21.15;11.45;;;;;;;12.85;100.00;97830.53;4976489;28;20050;-71
2022/03/27 09:03:53;;;;;;;19.38;10.25;;;;;;;12.83;100.00;97841.50;4977687;28;20384;-70
2022/03/27 09:06:21;;;;;;;18.00;9.88;;;;;;;12.83;100.00;97844.19;4974662;28;20045;-71
2022/03/27 09:08:51;;;;;;;20.70;11.02;;;;;;;12.93;100.00;97840.97;4981890;28;20066;-71
2022/03/27 09:11:18;;;;;;;28.88;11.15;;;;;;;13.05;100.00;97823.78;4978160;28;20042;-72
2022/03/27 09:13:47;;;;;;;23.30;10.90;;;;;;;13.24;100.00;97826.44;4979977;28;20354;-71
2022/03/27 09:16:13;;;;;;;22.48;10.32;;;;;;;13.32;100.00;97828.78;4977714;28;20046;-71
2022/03/27 09:18:52;;;;;;;23.77;10.70;;;;;;;13.11;100.00;97838.19;4963207;28;20088;-71
2022/03/27 09:21:20;;;;;;;19.55;10.10;;;;;;;13.47;100.00;97829.16;4977905;28;20077;-71
2022/03/27 09:23:51;;;;;;;19.85;10.13;;;;;;;13.55;100.00;97839.56;4979627;28;20120;-72
2022/03/27 09:26:17;;;;;;;15.90;8.50;;;;;;;13.80;100.00;97839.31;4978661;28;20045;-72
2022/03/27 09:28:45;;;;;;;15.65;9.02;;;;;;;14.05;100.00;97841.72;4980413;28;20077;-71
2022/03/27 09:31:14;;;;;;;17.38;10.43;;;;;;;14.12;100.00;97839.72;4978955;28;20047;-71
2022/03/27 09:33:47;;;;;;;16.58;10.10;;;;;;;14.40;100.00;97841.63;4978881;28;20063;-71
2022/03/27 09:36:33;;;;;;;18.10;10.00;;;;;;;14.38;100.00;97845.59;4976103;28;20037;-71
2022/03/27 09:39:04;;;;;;;21.13;9.57;;;;;;;14.68;100.00;97843.53;4974449;28;20088;-71
2022/03/27 09:41:42;;;;;;;18.17;10.10;;;;;;;15.33;100.00;97834.16;4971178;28;20050;-72
2022/03/27 09:44:09;;;;;;;17.30;9.27;;;;;;;15.69;100.00;97821.25;4975515;28;20622;-72
2022/03/27 09:46:50;;;;;;;14.23;8.27;;;;;;;15.92;100.00;97826.41;4976874;28;20470;-71
2022/03/27 09:49:17;;;;;;;14.75;8.02;;;;;;;16.38;100.00;97827.81;4975936;28;20734;-71
2022/03/27 09:52:16;;;;;;;15.00;7.30;;;;;;;16.51;98.37;97823.91;4978143;28;20520;-71
2022/03/27 09:54:55;;;;;;;15.07;8.70;;;;;;;16.55;95.86;97818.81;4961198;28;20046;-72
2022/03/27 09:57:35;;;;;;;15.88;8.65;;;;;;;16.49;96.16;97822.53;4950017;28;20056;-72
2022/03/27 10:00:15;;;;;;;20.70;9.55;;;;;;;16.46;92.57;97821.16;4970207;28;20049;-71
2022/03/27 10:02:42;;;;;;;19.80;9.33;;;;;;;16.55;93.67;97813.41;4975553;28;20485;-71
2022/03/27 10:05:13;;;;;;;14.55;8.68;;;;;;;16.93;88.99;97816.00;4979320;28;20042;-72
2022/03/27 10:07:45;;;;;;;18.25;9.43;;;;;;;16.75;88.50;97810.97;4980337;28;20490;-71
2022/03/27 10:10:14;;;;;;;18.08;9.73;;;;;;;16.66;91.92;97815.97;4982698;28;20129;-72
2022/03/27 10:12:42;;;;;;;20.02;9.20;;;;;;;16.71;90.46;97812.53;4983084;28;20049;-71
2022/03/27 10:15:16;;;;;;;13.77;7.15;;;;;;;16.83;88.94;97794.28;4981544;28;20045;-71
2022/03/27 10:17:46;;;;;;;16.10;8.40;;;;;;;16.80;91.56;97805.59;4984706;28;20141;-71
2022/03/27 10:20:17;;;;;;;17.13;7.85;;;;;;;16.27;91.04;97798.25;4983809;28;20112;-71
2022/03/27 10:22:45;;;;;;;14.52;7.82;;;;;;;16.96;87.06;97798.44;4982783;28;20042;-72
2022/03/27 10:25:13;;;;;;;12.85;6.72;;;;;;;17.36;84.71;97795.28;4971091;28;20074;-71
2022/03/27 10:27:41;;;;;;;15.98;7.65;;;;;;;17.53;82.63;97787.00;4981487;28;20620;-71
2022/03/27 10:30:09;;;;;;;14.07;7.30;;;;;;;18.06;81.27;97780.53;4979833;28;20096;-72
2022/03/27 10:32:35;;;;;;;16.35;7.57;;;;;;;18.62;74.01;97786.13;4982483;28;20500;-71
2022/03/27 10:35:14;;;;;;;15.50;6.93;;;;;;;18.79;72.23;97783.22;4984210;28;20053;-72
2022/03/27 10:37:53;;;;;;;20.05;8.40;;;;;;;18.09;78.15;97784.59;4981716;28;20057;-71
2022/03/27 10:40:32;;;;;;;16.30;8.35;;;;;;;18.22;78.30;97772.47;4983513;28;20080;-72
2022/03/27 10:43:12;;;;;;;14.32;7.70;;;;;;;20.23;64.20;97771.91;4984732;28;20093;-71
2022/03/27 10:45:37;;;;;;;14.57;7.70;;;;;;;22.66;48.03;97750.88;4979564;28;20141;-71
2022/03/27 10:48:14;;;;;;;14.57;7.72;;;;;;;23.55;45.32;97758.19;4979361;28;20460;-71
2022/03/27 10:50:53;;;;;;;13.93;7.25;;;;;;;26.54;37.85;97754.94;4981371;28;20144;-72
2022/03/27 10:53:25;;;;;;;12.07;7.43;;;;;;;26.79;36.50;97747.84;4981104;28;20069;-71
2022/03/27 10:55:52;;;;;;;11.65;7.43;;;;;;;25.81;37.11;97743.56;4982805;28;20171;-71
2022/03/27 10:58:32;;;;;;;11.48;6.93;;;;;;;22.68;44.63;97756.03;4978652;28;20069;-71
2022/03/27 11:01:28;;;;;;;20.08;8.38;;;;;;;22.46;46.66;97754.69;4979811;28;20145;-71
2022/03/27 11:04:07;;;;;;;14.55;7.53;;;;;;;20.80;55.26;97751.47;4980984;28;20120;-71
2022/03/27 11:06:56;;;;;;;13.75;8.20;;;;;;;20.08;61.33;97750.22;4982245;28;20091;-71
2022/03/27 11:09:47;;;;;;;14.02;7.63;;;;;;;19.57;63.29;97744.94;4965885;28;20054;-71
2022/03/27 11:12:25;;;;;;;16.33;8.55;;;;;;;19.53;64.48;97743.03;4978965;28;20050;-71
2022/03/27 11:14:55;;;;;;;12.32;7.65;;;;;;;20.28;59.70;97750.13;4981380;28;20389;-72
2022/03/27 11:17:35;;;;;;;15.93;7.80;;;;;;;19.97;59.07;97748.63;4981364;28;20039;-71
2022/03/27 11:20:05;;;;;;;12.10;6.90;;;;;;;21.34;53.34;97741.53;4982493;28;20050;-72
2022/03/27 11:22:51;;;;;;;14.20;7.47;;;;;;;23.28;42.74;97727.00;4977401;28;20058;-72
2022/03/27 11:25:38;;;;;;;16.08;7.85;;;;;;;21.30;48.66;97733.13;4981095;28;20046;-71
2022/03/27 11:28:03;;;;;;;12.05;7.85;;;;;;;20.43;54.51;97732.09;4977622;28;20379;-71